Time;durP1;ratioP1;P1;durP2;ratioP2;P2;SDS_P1;SDS_P2;PMS_P1;PMS_P2;Temp;Humidity;BMP_temperature;BMP_pressure;BME280_temperature;BME280_humidity;BME280_pressure;Samples;Min_cycle;Max_cycle;Signal;HPM_P1;HPM_P2
2022/02/04 00:25:50;;;;;;;11.57;5.65;;;;;;;3.72;81.35;99888.77;2075707;84;20984;-82
2022/02/04 00:32:05;;;;;;;12.68;6.33;;;;;;;3.71;81.40;99880.05;1998813;87;21077;-83
2022/02/04 00:35:19;;;;;;;12.30;6.45;;;;;;;3.73;81.46;99878.62;2067588;84;21085;-82
2022/02/04 00:38:23;;;;;;;16.25;6.47;;;;;;;3.74;81.55;99881.58;2077010;84;20995;-80
2022/02/04 00:41:17;;;;;;;15.48;7.22;;;;;;;3.73;81.52;99879.92;2076843;84;21012;-81
2022/02/04 00:44:27;;;;;;;13.18;6.15;;;;;;;3.75;81.64;99880.64;2071811;84;21024;-81
2022/02/04 00:47:29;;;;;;;11.50;5.67;;;;;;;3.70;81.60;99877.08;2075549;84;21136;-82
2022/02/04 00:50:50;;;;;;;11.20;5.33;;;;;;;3.68;81.67;99863.73;2074372;84;21059;-81
2022/02/04 00:53:48;;;;;;;13.35;6.05;;;;;;;3.61;81.82;99866.53;2077112;84;21022;-84
2022/02/04 00:56:45;;;;;;;11.83;5.78;;;;;;;3.55;81.89;99865.25;2073279;84;21094;-80
2022/02/04 01:13:05;;;;;;;13.98;6.60;;;;;;;3.43;82.39;99851.83;2077383;84;21112;-84
2022/02/04 01:26:13;;;;;;;21.80;6.80;;;;;;;3.31;82.88;99845.33;2107116;83;21021;-83
2022/02/04 01:29:14;;;;;;;13.98;6.72;;;;;;;3.31;82.94;99839.26;2102998;83;21614;-80
2022/02/04 01:32:16;;;;;;;13.58;5.87;;;;;;;3.31;82.95;99845.33;2097559;83;21044;-82
2022/02/04 01:35:17;;;;;;;17.30;5.92;;;;;;;3.31;82.97;99830.91;2094910;83;21080;-81
2022/02/04 01:38:19;;;;;;;11.25;4.83;;;;;;;3.34;83.04;99828.51;2094558;83;21035;-80
2022/02/04 01:41:20;;;;;;;10.95;5.95;;;;;;;3.37;83.02;99826.94;2098136;83;21551;-80
2022/02/04 01:44:27;;;;;;;13.60;5.67;;;;;;;3.39;83.30;99819.78;2099537;83;21116;-80
2022/02/04 01:47:30;;;;;;;18.27;6.37;;;;;;;3.36;83.09;99814.80;2103225;83;21048;-82
2022/02/04 01:50:32;;;;;;;13.48;5.92;;;;;;;3.37;83.14;99812.03;2098472;83;20975;-80
2022/02/04 01:53:34;;;;;;;13.70;7.33;;;;;;;3.38;83.15;99810.27;2099503;83;20961;-80
2022/02/04 01:56:35;;;;;;;16.32;7.08;;;;;;;3.37;83.11;99810.72;2109860;83;21052;-80
2022/02/04 01:59:37;;;;;;;12.88;6.25;;;;;;;3.35;83.10;99802.63;2112255;83;21018;-81
2022/02/04 02:02:38;;;;;;;15.28;6.22;;;;;;;3.36;83.17;99802.51;2100141;83;21047;-82
2022/02/04 02:05:39;;;;;;;12.70;6.28;;;;;;;3.33;83.23;99798.83;2097306;83;21046;-81
2022/02/04 02:08:43;;;;;;;16.10;7.90;;;;;;;3.32;83.37;99793.70;2105500;83;21015;-81
2022/02/04 02:11:48;;;;;;;13.15;7.45;;;;;;;3.29;83.41;99790.03;2097800;83;21068;-81
2022/02/04 02:14:57;;;;;;;14.33;7.28;;;;;;;3.26;83.42;99779.31;2083706;83;21016;-81
2022/02/04 02:47:33;;;;;;;14.28;7.33;;;;;;;3.19;83.99;99765.55;2099633;83;21032;-83
2022/02/04 03:00:06;;;;;;;24.05;9.40;;;;;;;3.13;84.06;99759.86;2097762;83;21090;-82
2022/02/04 03:03:08;;;;;;;21.27;8.75;;;;;;;3.14;84.19;99757.58;2096713;83;21384;-82
2022/02/04 03:06:08;;;;;;;16.95;8.30;;;;;;;3.16;84.19;99767.13;2107597;83;21071;-81
2022/02/04 03:09:09;;;;;;;16.95;7.60;;;;;;;3.21;84.13;99772.79;2100503;83;21039;-82
2022/02/04 03:12:11;;;;;;;20.12;7.85;;;;;;;3.25;84.11;99766.34;2098811;83;21009;-82
2022/02/04 03:15:12;;;;;;;21.87;8.25;;;;;;;3.32;84.05;99772.72;2106429;83;21523;-82
2022/02/04 03:18:23;;;;;;;18.37;8.65;;;;;;;3.36;83.89;99768.41;2095790;83;21048;-80
2022/02/04 03:21:28;;;;;;;18.77;8.90;;;;;;;3.42;83.88;99771.00;2101427;83;21080;-80
2022/02/04 03:24:28;;;;;;;21.15;9.45;;;;;;;3.50;83.88;99778.23;2103840;83;21039;-81
2022/02/04 03:27:37;;;;;;;18.23;9.48;;;;;;;3.52;83.77;99775.83;2099659;83;21067;-82
2022/02/04 03:30:35;;;;;;;19.73;9.43;;;;;;;3.54;83.68;99772.58;2101203;83;21087;-80
2022/02/04 03:33:36;;;;;;;20.77;9.18;;;;;;;3.58;83.70;99771.38;2094770;83;21054;-82
2022/02/04 03:36:38;;;;;;;18.27;8.88;;;;;;;3.62;83.59;99776.36;2100736;83;20972;-84
2022/02/04 03:39:39;;;;;;;18.62;8.38;;;;;;;3.53;83.44;99771.41;2103764;83;21542;-84
2022/02/04 03:42:40;;;;;;;19.20;8.28;;;;;;;3.45;83.50;99772.05;2102622;83;21089;-80
2022/02/04 03:45:41;;;;;;;20.10;8.30;;;;;;;3.43;83.59;99774.45;2099207;83;21095;-83
2022/02/04 03:48:43;;;;;;;20.32;9.15;;;;;;;3.42;83.59;99776.25;2100567;83;20965;-81
2022/02/04 03:51:44;;;;;;;22.45;10.40;;;;;;;3.42;83.65;99773.63;2103376;83;21014;-83
2022/02/04 03:54:45;;;;;;;21.95;9.55;;;;;;;3.41;83.61;99765.88;2099639;83;21107;-83
2022/02/04 03:57:47;;;;;;;21.42;10.40;;;;;;;3.39;83.68;99769.12;2101273;83;20986;-83
2022/02/04 04:00:48;;;;;;;24.70;10.58;;;;;;;3.34;83.72;99765.56;2101556;83;21035;-80
2022/02/04 04:03:52;;;;;;;16.45;9.38;;;;;;;3.29;83.71;99759.38;2095779;83;21009;-82
2022/02/04 04:06:53;;;;;;;18.87;9.73;;;;;;;3.24;83.74;99763.35;2102859;83;21072;-80
2022/02/04 04:10:03;;;;;;;20.15;9.83;;;;;;;3.18;83.88;99750.77;2101334;83;21023;-83
2022/02/04 04:12:59;;;;;;;21.82;9.43;;;;;;;3.14;83.97;99749.70;2100687;83;21402;-81
2022/02/04 04:16:00;;;;;;;20.80;9.93;;;;;;;3.12;84.06;99739.00;2097356;83;21034;-81
2022/02/04 04:19:02;;;;;;;16.90;9.93;;;;;;;3.13;84.08;99735.44;2103128;83;21491;-80
2022/02/04 04:22:04;;;;;;;19.65;8.98;;;;;;;3.13;84.05;99738.06;2103835;83;21094;-83
2022/02/04 04:25:07;;;;;;;19.25;9.28;;;;;;;3.13;84.10;99734.13;2101049;83;21071;-80
2022/02/04 04:28:08;;;;;;;19.05;9.43;;;;;;;3.12;84.07;99735.06;2094690;83;21048;-83
2022/02/04 04:31:13;;;;;;;25.20;10.65;;;;;;;3.11;84.08;99732.92;2098207;83;21135;-82
2022/02/04 04:34:14;;;;;;;18.00;8.95;;;;;;;3.15;84.08;99736.11;2105564;83;21044;-81
2022/02/04 04:37:15;;;;;;;25.17;10.80;;;;;;;3.14;84.02;99732.67;2095948;83;21023;-82
2022/02/04 05:29:31;;;;;;;21.37;8.48;;;;;;;3.12;83.94;99732.44;2094777;83;21076;-81
2022/02/04 05:32:33;;;;;;;19.25;8.70;;;;;;;3.11;83.97;99728.17;2095475;83;21028;-83
2022/02/04 05:35:36;;;;;;;16.00;7.92;;;;;;;3.09;83.97;99725.66;2102379;83;21048;-81
2022/02/04 05:38:38;;;;;;;15.35;8.00;;;;;;;3.07;83.95;99730.22;2102394;83;21004;-83
2022/02/04 05:41:44;;;;;;;16.25;8.08;;;;;;;3.06;83.97;99721.98;2102231;83;21114;-82
2022/02/04 05:44:44;;;;;;;17.52;8.95;;;;;;;3.08;84.02;99721.39;2103812;83;21078;-82
2022/02/04 05:47:48;;;;;;;15.35;7.95;;;;;;;3.08;83.96;99720.56;2097966;83;21593;-82
2022/02/04 05:51:05;;;;;;;17.67;8.78;;;;;;;3.09;83.98;99717.80;2099548;83;21079;-82
2022/02/04 05:54:04;;;;;;;19.65;10.63;;;;;;;3.11;84.01;99715.89;2091438;83;21501;-81
2022/02/04 05:57:08;;;;;;;14.90;8.38;;;;;;;3.12;83.94;99714.09;2093190;83;21458;-82
2022/02/04 06:00:25;;;;;;;15.70;8.20;;;;;;;3.12;83.90;99713.61;2087852;83;21080;-82
2022/02/04 06:22:30;;;;;;;20.75;10.58;;;;;;;3.12;83.88;99746.86;2098503;83;21055;-82
2022/02/04 06:25:32;;;;;;;22.65;10.18;;;;;;;3.19;83.87;99749.34;2098118;83;21039;-82
2022/02/04 06:28:35;;;;;;;18.37;9.33;;;;;;;3.27;83.90;99749.53;2092635;83;21583;-81
2022/02/04 06:31:37;;;;;;;19.57;9.35;;;;;;;3.35;83.84;99768.53;2103449;83;21554;-80
2022/02/04 06:34:38;;;;;;;17.80;8.70;;;;;;;3.42;83.77;99759.20;2104025;83;21772;-83
2022/02/04 06:37:39;;;;;;;18.55;8.75;;;;;;;3.40;83.63;99757.17;2107868;83;21090;-82
2022/02/04 06:40:40;;;;;;;21.37;9.38;;;;;;;3.39;83.53;99760.77;2093441;83;21502;-84
2022/02/04 06:43:42;;;;;;;16.90;8.73;;;;;;;3.36;83.49;99764.48;2096711;83;21063;-80
2022/02/04 06:46:43;;;;;;;18.80;9.10;;;;;;;3.36;83.56;99761.03;2093549;83;21502;-81
2022/02/04 06:49:45;;;;;;;18.17;10.23;;;;;;;3.40;83.64;99759.80;2101437;83;21039;-81
2022/02/04 06:52:47;;;;;;;16.93;9.23;;;;;;;3.42;83.61;99759.20;2104534;83;21024;-82
2022/02/04 06:55:48;;;;;;;19.20;9.83;;;;;;;3.51;83.76;99759.72;2093805;83;21051;-82
2022/02/04 06:58:49;;;;;;;19.90;10.53;;;;;;;3.66;83.86;99762.00;2101608;83;21007;-81
2022/02/04 07:01:50;;;;;;;21.52;11.10;;;;;;;3.76;83.73;99768.95;2101373;83;20992;-82
2022/02/04 07:04:52;;;;;;;28.20;11.70;;;;;;;3.82;83.52;99766.29;2094589;83;21059;-82
2022/02/04 07:08:05;;;;;;;20.62;10.80;;;;;;;3.87;83.42;99771.16;2100086;83;20992;-83
2022/02/04 07:20:59;;;;;;;21.77;11.10;;;;;;;3.96;83.18;99775.60;2097035;83;21083;-84
2022/02/04 07:24:01;;;;;;;17.02;9.15;;;;;;;3.99;83.19;99772.70;2102327;83;21007;-81
2022/02/04 07:27:03;;;;;;;24.57;11.35;;;;;;;4.01;83.15;99772.92;2105875;83;21024;-81
2022/02/04 07:30:06;;;;;;;25.68;12.40;;;;;;;4.04;83.14;99771.83;2095396;83;21144;-80
2022/02/04 07:33:17;;;;;;;33.92;15.68;;;;;;;4.02;83.02;99769.33;2099526;83;21540;-80
2022/02/04 07:42:55;;;;;;;24.80;13.25;;;;;;;3.93;83.07;99772.76;2105894;83;21017;-82
2022/02/04 07:45:57;;;;;;;20.00;11.40;;;;;;;3.97;83.17;99770.23;2095377;83;21036;-81
2022/02/04 07:48:58;;;;;;;20.85;10.08;;;;;;;4.01;83.18;99774.73;2100829;83;21053;-81
2022/02/04 07:52:00;;;;;;;27.07;16.15;;;;;;;4.04;83.24;99766.58;2104455;83;21012;-79
2022/02/04 07:55:04;;;;;;;21.62;12.00;;;;;;;4.09;83.27;99764.39;2094184;83;21053;-81
2022/02/04 07:58:05;;;;;;;21.07;10.20;;;;;;;4.13;83.26;99775.45;2096602;83;21080;-84
2022/02/04 08:01:06;;;;;;;27.45;13.35;;;;;;;4.19;83.26;99778.36;2098239;83;21610;-81
2022/02/04 08:07:15;;;;;;;27.73;13.55;;;;;;;4.26;83.22;99774.73;2097535;83;21051;-83
2022/02/04 08:10:27;;;;;;;27.30;14.60;;;;;;;4.29;83.28;99777.58;2099894;83;21018;-83
2022/02/04 08:13:40;;;;;;;33.90;19.02;;;;;;;4.27;83.24;99777.21;2096216;83;21567;-79
2022/02/04 08:20:12;;;;;;;38.63;21.17;;;;;;;4.33;83.34;99771.08;2074574;83;21527;-83
2022/02/04 08:52:10;;;;;;;23.05;12.05;;;;;;;4.46;83.75;99790.05;2096912;83;21013;-82
2022/02/04 08:55:09;;;;;;;22.30;12.78;;;;;;;4.51;83.93;99792.28;2090636;83;21571;-82
2022/02/04 09:01:30;;;;;;;27.45;14.65;;;;;;;4.64;84.09;99795.47;2058011;83;21023;-80
2022/02/04 09:04:35;;;;;;;28.15;15.10;;;;;;;4.76;84.15;99793.53;2098841;83;21028;-78
2022/02/04 09:07:43;;;;;;;44.18;27.13;;;;;;;4.90;84.16;99789.21;2092680;83;21083;-81
2022/02/04 09:10:35;;;;;;;32.38;17.87;;;;;;;4.98;84.08;99794.58;2095284;83;21051;-79
2022/02/04 09:17:29;;;;;;;19.20;11.63;;;;;;;5.22;84.23;99791.53;2094583;83;21072;-79
2022/02/04 09:20:39;;;;;;;23.85;12.15;;;;;;;5.33;84.17;99789.24;2094142;83;21016;-81
2022/02/04 09:23:37;;;;;;;24.90;12.93;;;;;;;5.42;84.08;99787.56;2097918;83;21081;-79
2022/02/04 09:26:40;;;;;;;21.12;11.97;;;;;;;5.47;83.94;99794.55;2097794;83;21458;-77
2022/02/04 09:29:41;;;;;;;18.12;11.95;;;;;;;5.52;84.05;99793.61;2094540;83;21018;-83
2022/02/04 09:32:44;;;;;;;18.55;10.98;;;;;;;5.53;84.10;99787.40;2102337;83;21493;-82
2022/02/04 09:35:45;;;;;;;19.85;11.83;;;;;;;5.57;83.99;99791.39;2100008;83;20986;-80
2022/02/04 09:38:47;;;;;;;21.70;12.78;;;;;;;5.60;84.06;99787.16;2103620;83;21471;-81
2022/02/04 09:41:48;;;;;;;19.57;11.95;;;;;;;5.65;84.00;99788.88;2100685;83;21092;-79
2022/02/04 09:44:49;;;;;;;17.77;12.45;;;;;;;5.72;83.93;99791.30;2105047;83;21099;-79
2022/02/04 09:48:03;;;;;;;18.05;11.75;;;;;;;5.77;83.85;99787.75;2108193;83;21129;-79
2022/02/04 09:51:04;;;;;;;18.55;12.18;;;;;;;5.85;83.92;99787.83;2097393;83;21049;-82
2022/02/04 10:11:05;;;;;;;20.50;12.07;;;;;;;6.21;83.21;99773.50;2099004;83;21760;-79
2022/02/04 10:17:37;;;;;;;21.00;11.33;;;;;;;6.36;82.88;99779.59;2095942;83;21051;-79
2022/02/04 10:20:34;;;;;;;19.95;11.70;;;;;;;6.42;83.03;99778.99;2092484;83;21587;-78
2022/02/04 10:23:52;;;;;;;19.48;10.85;;;;;;;6.49;82.99;99780.07;2097388;83;21094;-81
2022/02/04 10:27:18;;;;;;;18.27;9.98;;;;;;;6.56;82.69;99777.20;2096458;83;22171;-77
2022/02/04 10:30:19;;;;;;;20.02;10.40;;;;;;;6.60;82.62;99775.08;2098609;83;21079;-80
2022/02/04 10:33:22;;;;;;;19.65;11.18;;;;;;;6.61;82.25;99763.05;2094734;83;21115;-79
2022/02/04 10:40:19;;;;;;;16.05;9.70;;;;;;;6.68;81.96;99761.48;2053413;83;21016;-79
2022/02/04 10:46:58;;;;;;;12.82;8.58;;;;;;;6.56;81.33;99765.33;2100194;83;20996;-78
2022/02/04 10:53:30;;;;;;;13.68;9.43;;;;;;;6.46;81.26;99759.28;2043238;83;21088;-80
2022/02/04 10:59:36;;;;;;;14.90;9.33;;;;;;;6.45;81.20;99757.14;2096209;83;21564;-81
2022/02/04 11:02:40;;;;;;;20.68;11.53;;;;;;;6.47;81.36;99755.66;2095049;83;21013;-79
2022/02/04 11:06:32;;;;;;;18.45;11.20;;;;;;;6.51;81.43;99752.59;2095167;83;21003;-79
2022/02/04 11:35:41;;;;;;;22.45;10.75;;;;;;;6.62;80.67;99737.54;2100425;83;21375;-81
2022/02/04 11:48:30;;;;;;;31.07;11.77;;;;;;;6.68;80.58;99728.53;2097495;83;21028;-85
2022/02/04 11:54:46;;;;;;;16.87;8.83;;;;;;;6.71;80.31;99712.41;2102011;83;21030;-80
2022/02/04 11:58:03;;;;;;;29.40;14.10;;;;;;;6.70;80.13;99714.72;2111580;82;21007;-82
2022/02/04 12:01:17;;;;;;;23.42;11.83;;;;;;;6.73;80.26;99716.22;2097416;83;21052;-80
2022/02/04 12:04:20;;;;;;;19.23;9.80;;;;;;;6.75;80.08;99707.65;2095269;83;21039;-84
2022/02/04 12:07:42;;;;;;;36.23;13.55;;;;;;;6.73;79.94;99707.81;2094970;83;21936;-77
2022/02/04 12:10:50;;;;;;;17.92;10.20;;;;;;;6.73;79.93;99705.67;2091209;83;21008;-81
2022/02/04 12:14:12;;;;;;;19.30;10.48;;;;;;;6.76;80.05;99704.05;2113159;83;21021;-79
2022/02/04 12:17:16;;;;;;;14.35;9.40;;;;;;;6.82;80.05;99698.16;2096048;83;21517;-80
2022/02/04 12:20:16;;;;;;;15.40;9.48;;;;;;;6.89;79.98;99693.09;2098547;83;21107;-83
2022/02/04 12:23:36;;;;;;;31.20;11.38;;;;;;;6.89;79.65;99692.59;2095683;83;20996;-78
2022/02/04 12:26:37;;;;;;;18.77;10.63;;;;;;;6.84;79.23;99690.08;2096884;83;21108;-78
2022/02/04 12:29:38;;;;;;;14.15;9.40;;;;;;;6.78;79.25;99695.97;2096851;83;21105;-78
2022/02/04 12:32:40;;;;;;;16.35;9.75;;;;;;;6.70;79.21;99690.98;2098976;83;21019;-81
2022/02/04 12:35:42;;;;;;;20.65;9.63;;;;;;;6.63;79.00;99687.28;2102550;83;21077;-80
2022/02/04 12:38:45;;;;;;;21.55;9.73;;;;;;;6.57;78.78;99687.08;2101573;83;21000;-81
2022/02/04 12:42:02;;;;;;;25.43;12.50;;;;;;;6.55;78.85;99685.07;2099674;83;21062;-79
2022/02/04 12:45:14;;;;;;;29.40;13.83;;;;;;;6.52;78.74;99690.15;2100109;83;21047;-81
2022/02/04 12:48:15;;;;;;;17.37;9.63;;;;;;;6.51;78.82;99685.87;2099207;83;20992;-77
2022/02/04 12:51:33;;;;;;;25.92;13.10;;;;;;;6.52;78.80;99683.56;2076335;83;21027;-83
2022/02/04 12:54:44;;;;;;;16.15;10.60;;;;;;;6.55;78.94;99684.58;2070992;83;21048;-80
2022/02/04 12:57:54;;;;;;;18.37;10.45;;;;;;;6.61;78.98;99675.23;2111650;83;21070;-79
2022/02/04 13:07:45;;;;;;;19.73;10.30;;;;;;;6.67;77.84;99675.94;2101296;83;21012;-81
2022/02/04 13:10:44;;;;;;;21.27;12.03;;;;;;;6.64;77.94;99676.24;2098371;83;21028;-82
2022/02/04 13:13:49;;;;;;;20.77;11.53;;;;;;;6.62;77.87;99671.14;2099326;83;21624;-82
2022/02/04 13:16:52;;;;;;;16.85;9.18;;;;;;;6.63;77.79;99673.28;2096913;83;21068;-81
2022/02/04 13:19:56;;;;;;;15.93;9.33;;;;;;;6.62;77.96;99677.73;2104103;83;21064;-80
2022/02/04 13:23:00;;;;;;;16.85;9.48;;;;;;;6.64;78.05;99677.06;2091655;83;21001;-80
2022/02/04 13:26:05;;;;;;;22.40;12.18;;;;;;;6.62;77.58;99673.77;2102981;83;21004;-81
2022/02/04 13:29:08;;;;;;;16.35;10.40;;;;;;;6.59;77.74;99670.59;2098007;83;21537;-79
2022/02/04 13:32:26;;;;;;;15.43;10.80;;;;;;;6.58;77.94;99677.67;2097146;83;21063;-82
2022/02/04 13:35:38;;;;;;;16.80;10.05;;;;;;;6.59;78.12;99670.59;2099554;83;21000;-81
2022/02/04 13:38:52;;;;;;;18.80;10.10;;;;;;;6.61;78.18;99670.78;2099438;83;21517;-82
2022/02/04 13:42:07;;;;;;;20.75;12.28;;;;;;;6.60;78.13;99673.59;2096561;83;21012;-83
2022/02/04 13:45:06;;;;;;;21.85;13.20;;;;;;;6.60;78.16;99663.05;2095162;83;21583;-81
2022/02/04 13:48:11;;;;;;;21.55;12.35;;;;;;;6.62;78.01;99656.64;2091756;83;21109;-81
2022/02/04 13:51:20;;;;;;;22.22;11.35;;;;;;;6.63;77.81;99657.46;2098406;83;21060;-81
2022/02/04 13:54:31;;;;;;;21.55;12.07;;;;;;;6.59;77.79;99647.72;2098737;83;21056;-81
2022/02/04 13:57:42;;;;;;;21.65;11.53;;;;;;;6.56;77.79;99644.08;2099676;83;21085;-79
2022/02/04 14:00:55;;;;;;;18.48;11.80;;;;;;;6.48;77.63;99636.09;2101284;83;21028;-79
2022/02/04 14:03:54;;;;;;;20.25;11.05;;;;;;;6.43;77.64;99639.17;2098541;83;22295;-77
2022/02/04 14:07:08;;;;;;;20.65;11.38;;;;;;;6.42;77.58;99642.80;2099330;83;21004;-82
2022/02/04 14:10:21;;;;;;;16.73;10.65;;;;;;;6.35;77.45;99643.55;2099771;83;21521;-80
2022/02/04 14:13:28;;;;;;;15.80;10.30;;;;;;;6.30;77.42;99645.31;2095667;83;21043;-82
2022/02/04 14:16:29;;;;;;;18.02;11.05;;;;;;;6.24;77.28;99630.11;2094418;83;21019;-82
2022/02/04 14:19:31;;;;;;;15.40;9.98;;;;;;;6.15;77.29;99629.20;2099348;83;21052;-83
2022/02/04 14:22:32;;;;;;;17.25;10.50;;;;;;;6.11;77.28;99631.81;2099339;83;20993;-80
2022/02/04 14:25:58;;;;;;;17.55;10.50;;;;;;;6.04;77.23;99618.89;2077161;83;21008;-83
2022/02/04 14:29:20;;;;;;;16.45;9.88;;;;;;;6.00;77.33;99617.05;2113053;82;20983;-81
2022/02/04 14:32:20;;;;;;;16.70;9.50;;;;;;;5.97;77.21;99616.50;2094283;83;21048;-80
2022/02/04 14:35:45;;;;;;;16.70;9.63;;;;;;;5.97;77.26;99616.50;2094333;83;21048;-81
2022/02/04 15:01:28;;;;;;;15.25;8.55;;;;;;;5.94;76.68;99597.05;2101948;83;21083;-79
2022/02/04 15:04:38;;;;;;;24.55;12.15;;;;;;;5.95;76.70;99586.88;2094857;83;21001;-81
2022/02/04 15:07:32;;;;;;;32.33;14.03;;;;;;;5.98;76.74;99586.58;2097213;83;21044;-79
2022/02/04 15:10:32;;;;;;;18.50;8.70;;;;;;;5.99;76.61;99589.53;2092607;83;21088;-80
2022/02/04 15:13:36;;;;;;;15.70;8.38;;;;;;;5.98;76.47;99589.20;2098404;83;21085;-77
2022/02/04 15:16:38;;;;;;;14.68;8.98;;;;;;;5.94;76.33;99582.56;2097089;83;21052;-79
2022/02/04 15:19:43;;;;;;;15.90;9.70;;;;;;;5.91;76.19;99579.71;2096436;83;21597;-84
2022/02/04 15:22:44;;;;;;;15.53;9.08;;;;;;;5.90;76.13;99579.38;2097277;83;21032;-80
2022/02/04 15:25:52;;;;;;;21.35;9.93;;;;;;;5.88;76.07;99580.02;2092984;83;20998;-81
2022/02/04 15:29:00;;;;;;;14.15;8.85;;;;;;;5.87;76.14;99580.18;2098150;83;21059;-79
2022/02/04 15:32:01;;;;;;;17.48;9.73;;;;;;;5.85;76.01;99580.31;2095325;83;21067;-80
2022/02/04 15:35:04;;;;;;;18.73;10.90;;;;;;;5.83;75.99;99579.16;2098305;83;21050;-79
2022/02/04 15:38:08;;;;;;;16.62;10.28;;;;;;;5.85;75.95;99567.15;2098002;83;21632;-81
2022/02/04 15:41:14;;;;;;;21.85;10.78;;;;;;;5.83;75.90;99572.58;2099876;83;21091;-80
2022/02/04 15:44:36;;;;;;;22.30;11.50;;;;;;;5.82;75.85;99567.45;2096300;83;21032;-80
2022/02/04 15:47:34;;;;;;;21.82;11.57;;;;;;;5.77;75.79;99563.11;2093288;83;21058;-82
2022/02/04 15:51:33;;;;;;;25.20;11.70;;;;;;;5.75;75.77;99565.09;2097679;83;21507;-80
2022/02/04 16:03:30;;;;;;;20.02;10.30;;;;;;;5.68;75.39;99546.41;2095430;83;21051;-82
2022/02/04 16:06:19;;;;;;;15.30;9.67;;;;;;;5.67;75.53;99551.35;2094799;83;21592;-83
2022/02/04 16:09:21;;;;;;;20.60;10.63;;;;;;;5.71;75.55;99549.23;2100008;83;21051;-85
2022/02/04 16:12:28;;;;;;;24.02;13.25;;;;;;;5.73;75.42;99549.44;2096237;83;21015;-84
2022/02/04 16:18:33;;;;;;;27.52;13.95;;;;;;;6.04;75.82;99549.09;2095085;83;21063;-79
2022/02/04 16:21:49;;;;;;;23.25;12.82;;;;;;;6.18;75.16;99545.09;2092891;83;21052;-82
2022/02/04 16:31:11;;;;;;;24.32;12.85;;;;;;;5.93;74.72;99533.49;2097901;83;21076;-81
2022/02/04 16:34:13;;;;;;;23.73;11.97;;;;;;;5.83;74.87;99534.41;2095795;83;21356;-79
2022/02/04 16:37:17;;;;;;;19.67;11.43;;;;;;;5.77;74.65;99523.16;2096535;83;21026;-84
2022/02/04 16:40:19;;;;;;;24.82;13.53;;;;;;;5.71;74.85;99519.79;2074147;83;21059;-82
2022/02/04 16:43:21;;;;;;;22.50;13.20;;;;;;;5.69;74.96;99515.65;2096678;83;21083;-81
2022/02/04 16:46:22;;;;;;;28.45;13.88;;;;;;;5.69;74.93;99516.50;2093540;83;21008;-81
2022/02/04 16:49:23;;;;;;;26.70;14.75;;;;;;;5.66;74.95;99520.75;2097531;83;21546;-80
2022/02/04 16:52:25;;;;;;;40.60;22.15;;;;;;;5.61;74.91;99519.88;2101200;83;20988;-81
2022/02/04 16:55:26;;;;;;;35.88;18.50;;;;;;;5.58;74.92;99518.86;2096333;83;21060;-78
2022/02/04 16:58:28;;;;;;;45.05;26.07;;;;;;;5.55;74.97;99518.34;2096810;83;21104;-80
2022/02/04 17:01:29;;;;;;;36.40;22.05;;;;;;;5.52;74.89;99526.50;2096906;83;21037;-80
2022/02/04 17:04:30;;;;;;;22.60;13.38;;;;;;;5.48;74.90;99525.98;2097116;83;20980;-81
2022/02/04 17:07:35;;;;;;;38.75;25.55;;;;;;;5.43;74.78;99523.45;2097648;83;21055;-81
2022/02/04 17:10:41;;;;;;;45.58;26.45;;;;;;;5.40;74.90;99527.20;2096653;83;21092;-79
2022/02/04 17:13:40;;;;;;;28.60;16.48;;;;;;;5.42;74.83;99536.28;2099420;83;21040;-82
2022/02/04 17:16:42;;;;;;;40.03;21.82;;;;;;;5.42;74.81;99534.97;2102463;83;21546;-80
2022/02/04 17:19:51;;;;;;;30.15;15.30;;;;;;;5.40;74.80;99530.66;2096126;83;21000;-80
2022/02/04 17:22:47;;;;;;;26.10;14.45;;;;;;;5.40;74.80;99517.50;2097996;83;21052;-82
2022/02/04 17:25:49;;;;;;;24.37;13.68;;;;;;;5.41;74.58;99522.30;2103869;83;21019;-82
2022/02/04 17:28:51;;;;;;;24.70;13.45;;;;;;;5.37;74.63;99517.80;2097069;83;21391;-77
2022/02/04 17:31:53;;;;;;;23.87;13.08;;;;;;;5.32;74.59;99514.81;2099456;83;21062;-80
2022/02/04 17:34:55;;;;;;;33.60;19.02;;;;;;;5.31;74.59;99516.27;2099641;83;20999;-78
2022/02/04 17:38:01;;;;;;;19.98;11.43;;;;;;;5.30;74.66;99525.96;2099338;83;21080;-81
2022/02/04 17:41:00;;;;;;;33.02;16.73;;;;;;;5.30;74.46;99518.56;2100730;83;21019;-82
2022/02/04 17:44:02;;;;;;;27.22;15.05;;;;;;;5.32;74.62;99522.70;2099706;83;21047;-80
2022/02/04 17:47:05;;;;;;;20.95;12.43;;;;;;;5.31;74.53;99522.84;2098561;83;21067;-81
2022/02/04 17:50:13;;;;;;;25.43;14.43;;;;;;;5.30;74.52;99514.13;2100184;83;21024;-81
2022/02/04 17:53:17;;;;;;;31.55;15.53;;;;;;;5.28;74.53;99531.02;2099449;83;21067;-81
2022/02/04 18:00:05;;;;;;;25.12;12.90;;;;;;;5.22;74.54;99519.29;2095758;83;21079;-81
2022/02/04 18:06:24;;;;;;;35.33;18.52;;;;;;;5.18;74.59;99508.73;2096228;83;21339;-81
2022/02/04 18:09:13;;;;;;;47.30;24.75;;;;;;;5.21;74.64;99504.49;2095558;83;21076;-83
2022/02/04 18:12:28;;;;;;;59.48;28.85;;;;;;;5.23;74.66;99504.33;2100753;83;21028;-85
2022/02/04 18:15:24;;;;;;;51.50;21.30;;;;;;;5.24;74.58;99494.98;2096124;83;21051;-82
2022/02/04 18:18:27;;;;;;;42.60;18.25;;;;;;;5.27;74.61;99493.87;2100305;83;21056;-82
2022/02/04 18:21:28;;;;;;;40.70;16.97;;;;;;;5.25;74.56;99486.61;2100162;83;21804;-81
2022/02/04 18:24:30;;;;;;;30.10;14.38;;;;;;;5.25;74.48;99487.92;2099469;83;21074;-77
2022/02/04 18:27:31;;;;;;;29.42;14.33;;;;;;;5.24;74.49;99479.20;2096453;83;21432;-81
2022/02/04 18:30:35;;;;;;;33.45;15.40;;;;;;;5.22;74.47;99471.94;2094517;83;21521;-82
2022/02/04 18:33:36;;;;;;;20.35;11.55;;;;;;;5.22;74.54;99471.94;2097684;83;21015;-81
2022/02/04 18:36:41;;;;;;;17.92;10.38;;;;;;;5.19;74.44;99468.79;2102224;82;21093;-82
2022/02/04 18:46:07;;;;;;;24.10;13.75;;;;;;;5.17;74.51;99473.69;2098935;83;21056;-82
2022/02/04 18:49:16;;;;;;;28.00;14.85;;;;;;;5.20;74.46;99478.33;2097620;82;20993;-79
2022/02/04 18:55:41;;;;;;;30.00;15.13;;;;;;;5.17;74.43;99472.87;2095533;83;21071;-79
2022/02/04 18:58:23;;;;;;;26.17;13.95;;;;;;;5.16;74.40;99469.91;2090801;83;21030;-82
2022/02/04 19:01:27;;;;;;;29.25;14.73;;;;;;;5.14;74.46;99466.59;2099950;83;21930;-80
2022/02/04 19:04:38;;;;;;;23.67;12.45;;;;;;;5.13;74.42;99474.16;2103564;83;21036;-82
2022/02/04 19:07:41;;;;;;;19.40;10.98;;;;;;;5.09;74.41;99474.09;2099064;83;21037;-83
2022/02/04 19:10:39;;;;;;;17.55;10.70;;;;;;;5.09;74.43;99474.09;2097545;83;21019;-82
2022/02/04 19:13:48;;;;;;;23.45;12.03;;;;;;;5.07;74.49;99461.60;2096248;83;21011;-83
2022/02/04 19:20:10;;;;;;;20.77;11.25;;;;;;;5.09;74.48;99460.45;2097536;83;21028;-83
2022/02/04 19:23:13;;;;;;;24.47;11.50;;;;;;;5.11;74.50;99461.63;2098011;83;21066;-82
2022/02/04 19:26:16;;;;;;;20.72;10.60;;;;;;;5.11;74.47;99461.63;2098893;83;21038;-80
2022/02/04 19:29:16;;;;;;;18.35;10.93;;;;;;;5.08;74.50;99461.92;2101028;83;21127;-83
2022/02/04 19:32:18;;;;;;;23.47;11.53;;;;;;;5.06;74.51;99457.30;2098776;83;21023;-82
2022/02/04 19:35:20;;;;;;;25.23;12.10;;;;;;;5.06;74.52;99450.23;2116006;83;21063;-80
2022/02/04 19:38:22;;;;;;;25.48;13.48;;;;;;;5.07;74.53;99440.56;2114183;82;21030;-83
2022/02/04 19:41:28;;;;;;;39.35;17.80;;;;;;;5.06;74.47;99435.77;2112175;82;21003;-79
2022/02/04 19:44:30;;;;;;;33.98;13.75;;;;;;;5.08;74.51;99431.69;2112603;83;21102;-80
2022/02/04 19:47:43;;;;;;;17.35;8.98;;;;;;;5.09;74.49;99426.75;2095940;83;21048;-81
2022/02/04 19:50:45;;;;;;;20.97;9.58;;;;;;;5.12;74.49;99431.72;2095820;83;21596;-81
2022/02/04 20:15:09;;;;;;;20.80;8.65;;;;;;;5.10;74.41;99410.02;2092648;83;21026;-81
2022/02/04 20:26:10;;;;;;;17.17;8.70;;;;;;;5.16;74.41;99388.38;2103869;83;21082;-81
2022/02/04 20:29:12;;;;;;;20.45;10.60;;;;;;;5.16;74.41;99400.22;2079598;83;21058;-83
2022/02/04 20:32:14;;;;;;;24.80;10.80;;;;;;;5.14;74.37;99398.22;2096252;83;21076;-82
2022/02/04 20:35:16;;;;;;;27.30;11.33;;;;;;;5.14;74.40;99398.22;2107806;83;21018;-82
2022/02/04 20:38:20;;;;;;;19.60;8.30;;;;;;;5.12;74.37;99404.95;2096864;83;21000;-79
2022/02/04 20:41:26;;;;;;;13.08;7.22;;;;;;;5.09;74.24;99411.80;2100661;83;21019;-79
2022/02/04 20:44:28;;;;;;;11.73;6.65;;;;;;;5.09;74.26;99397.83;2098015;83;21019;-80
2022/02/04 20:47:34;;;;;;;13.13;7.37;;;;;;;5.08;74.26;99394.88;2079990;83;21574;-81
2022/02/04 20:50:34;;;;;;;13.78;7.30;;;;;;;5.09;74.27;99392.08;2079170;83;21100;-79